createdAt,value
2019-05-07T00:00:37.896Z,985.88
2019-05-07T00:01:37.885Z,985.92
2019-05-07T00:02:37.820Z,985.90
2019-05-07T00:03:37.803Z,985.90
2019-05-07T00:04:37.744Z,985.87
2019-05-07T00:05:37.693Z,985.86
2019-05-07T00:06:37.665Z,985.86
2019-05-07T00:07:37.629Z,985.84
2019-05-07T00:08:37.566Z,985.83
2019-05-07T00:09:37.520Z,985.85
2019-05-07T00:10:37.510Z,985.86
2019-05-07T00:11:37.451Z,985.85
2019-05-07T00:12:37.392Z,985.83
2019-05-07T00:13:37.386Z,985.84
2019-05-07T00:14:37.309Z,985.90
2019-05-07T00:15:37.281Z,985.86
2019-05-07T00:16:37.221Z,985.81
2019-05-07T00:17:37.178Z,985.82
2019-05-07T00:18:37.143Z,985.82
2019-05-07T00:19:37.103Z,985.81
2019-05-07T00:20:37.060Z,985.84
2019-05-07T00:21:37.012Z,985.81
2019-05-07T00:22:36.962Z,985.82
2019-05-07T00:23:36.921Z,985.79
2019-05-07T00:24:36.878Z,985.81
2019-05-07T00:25:36.841Z,985.79
2019-05-07T00:26:36.833Z,985.78
2019-05-07T00:27:36.783Z,985.78
2019-05-07T00:28:36.707Z,985.79
2019-05-07T00:29:36.701Z,985.75
2019-05-07T00:30:36.630Z,985.74
2019-05-07T00:31:36.652Z,985.78
2019-05-07T00:32:36.548Z,985.74
2019-05-07T00:33:36.513Z,985.74
2019-05-07T00:34:36.491Z,985.78
2019-05-07T00:35:36.417Z,985.74
2019-05-07T00:36:36.403Z,985.72
2019-05-07T00:37:36.352Z,985.77
2019-05-07T00:38:36.300Z,985.77
2019-05-07T00:39:36.256Z,985.73
2019-05-07T00:40:36.225Z,985.76
2019-05-07T00:41:36.164Z,985.77
2019-05-07T00:42:36.135Z,985.76
2019-05-07T00:43:36.105Z,985.76
2019-05-07T00:44:36.045Z,985.77
2019-05-07T00:45:35.994Z,985.76
2019-05-07T00:46:35.949Z,985.72
2019-05-07T00:47:35.900Z,985.72
2019-05-07T00:48:35.871Z,985.75
2019-05-07T00:49:35.836Z,985.70
2019-05-07T00:50:35.810Z,985.65
2019-05-07T00:51:35.794Z,985.63
2019-05-07T00:52:35.733Z,985.64
2019-05-07T00:53:35.657Z,985.64
2019-05-07T00:54:35.631Z,985.62
2019-05-07T00:55:35.605Z,985.65
2019-05-07T00:56:35.583Z,985.65
2019-05-07T00:57:35.518Z,985.61
2019-05-07T00:58:36.434Z,985.63
2019-05-07T00:59:35.425Z,985.63
2019-05-07T01:00:35.375Z,985.63
2019-05-07T01:01:35.347Z,985.64
2019-05-07T01:02:35.296Z,985.63
2019-05-07T01:03:35.244Z,985.65
2019-05-07T01:04:35.194Z,985.62
2019-05-07T01:05:35.162Z,985.59
2019-05-07T01:06:35.168Z,985.60
2019-05-07T01:07:35.081Z,985.61
2019-05-07T01:08:35.038Z,985.63
2019-05-07T01:09:34.996Z,985.62
2019-05-07T01:10:34.947Z,985.64
2019-05-07T01:11:34.908Z,985.61
2019-05-07T01:12:34.885Z,985.66
2019-05-07T01:13:34.834Z,985.65
2019-05-07T01:14:34.775Z,985.61
2019-05-07T01:15:34.925Z,985.65
2019-05-07T01:16:34.727Z,985.63
2019-05-07T01:17:34.690Z,985.61
2019-05-07T01:18:34.645Z,985.58
2019-05-07T01:19:34.602Z,985.59
2019-05-07T01:20:34.535Z,985.59
2019-05-07T01:21:34.490Z,985.58
2019-05-07T01:22:34.460Z,985.56
2019-05-07T01:23:34.430Z,985.58
2019-05-07T01:24:34.374Z,985.58
2019-05-07T01:25:34.349Z,985.57
2019-05-07T01:26:34.326Z,985.55
2019-05-07T01:27:34.241Z,985.57
2019-05-07T01:28:34.212Z,985.58
2019-05-07T01:29:34.155Z,985.59
2019-05-07T01:30:34.114Z,985.61
2019-05-07T01:31:34.068Z,985.58
2019-05-07T01:32:34.034Z,985.58
2019-05-07T01:33:33.990Z,985.52
2019-05-07T01:34:33.955Z,985.52
2019-05-07T01:35:33.931Z,985.52
2019-05-07T01:36:33.891Z,985.55
2019-05-07T01:37:33.824Z,985.54
2019-05-07T01:38:33.790Z,985.55
2019-05-07T01:39:33.772Z,985.57
2019-05-07T01:40:33.707Z,985.56
2019-05-07T01:41:33.666Z,985.60
2019-05-07T01:42:36.492Z,985.59
2019-05-07T01:43:33.594Z,985.56
2019-05-07T01:44:33.559Z,985.56
2019-05-07T01:45:45.558Z,985.57
2019-05-07T01:46:33.456Z,985.59
2019-05-07T01:47:33.447Z,985.58
2019-05-07T01:48:33.378Z,985.55
2019-05-07T01:49:33.339Z,985.53
2019-05-07T01:50:33.298Z,985.55
2019-05-07T01:51:33.265Z,985.55
2019-05-07T01:52:33.338Z,985.54
2019-05-07T01:53:33.196Z,985.54
2019-05-07T01:54:33.532Z,985.50
2019-05-07T01:55:33.105Z,985.56
2019-05-07T01:56:33.253Z,985.53
2019-05-07T01:57:32.998Z,985.50
2019-05-07T01:58:33.334Z,985.55
2019-05-07T01:59:32.927Z,985.51
2019-05-07T02:00:32.923Z,985.53
2019-05-07T02:01:35.790Z,985.54
2019-05-07T02:02:32.790Z,985.54
2019-05-07T02:03:32.924Z,985.58
2019-05-07T02:04:32.811Z,985.53
2019-05-07T02:05:32.793Z,985.57
2019-05-07T02:06:32.839Z,985.53
2019-05-07T02:07:33.399Z,985.51
2019-05-07T02:08:32.873Z,985.52
2019-05-07T02:09:34.024Z,985.52
2019-05-07T02:10:33.456Z,985.54
2019-05-07T02:11:32.790Z,985.50
2019-05-07T02:12:32.402Z,985.56
2019-05-07T02:13:33.858Z,985.51
2019-05-07T02:14:33.040Z,985.49
2019-05-07T02:15:32.496Z,985.51
2019-05-07T02:16:32.641Z,985.49
2019-05-07T02:17:32.352Z,985.53
2019-05-07T02:18:32.660Z,985.53
2019-05-07T02:19:32.970Z,985.54
2019-05-07T02:20:32.346Z,985.57
2019-05-07T02:21:32.950Z,985.60
2019-05-07T02:22:32.173Z,985.56
2019-05-07T02:23:33.015Z,985.57
2019-05-07T02:24:33.911Z,985.60
2019-05-07T02:25:32.703Z,985.60
2019-05-07T02:26:32.129Z,985.59
2019-05-07T02:27:32.883Z,985.57
2019-05-07T02:28:32.932Z,985.58
2019-05-07T02:29:32.415Z,985.61
2019-05-07T02:30:34.760Z,985.61
2019-05-07T02:31:33.595Z,985.53
2019-05-07T02:32:33.507Z,985.54
2019-05-07T02:33:34.834Z,985.54
2019-05-07T02:34:34.268Z,985.57
2019-05-07T02:35:33.292Z,985.54
2019-05-07T02:36:33.981Z,985.50
2019-05-07T02:37:42.309Z,985.49
2019-05-07T02:38:33.908Z,985.50
2019-05-07T02:39:33.271Z,985.47
2019-05-07T02:40:33.919Z,985.49
2019-05-07T02:41:33.081Z,985.49
2019-05-07T02:42:33.657Z,985.50
2019-05-07T02:43:33.806Z,985.50
2019-05-07T02:44:32.476Z,985.47
2019-05-07T02:45:33.258Z,985.49
2019-05-07T02:46:35.196Z,985.49
2019-05-07T02:47:33.036Z,985.50
2019-05-07T02:48:33.321Z,985.47
2019-05-07T02:49:32.763Z,985.47
2019-05-07T02:50:33.012Z,985.45
2019-05-07T02:51:33.470Z,985.43
2019-05-07T02:52:32.416Z,985.45
2019-05-07T02:53:33.501Z,985.44
2019-05-07T02:54:32.871Z,985.42
2019-05-07T02:55:33.438Z,985.44
2019-05-07T02:56:33.257Z,985.45
2019-05-07T02:57:33.558Z,985.43
2019-05-07T02:58:33.042Z,985.40
2019-05-07T02:59:33.360Z,985.43
2019-05-07T03:00:33.156Z,985.42
2019-05-07T03:01:33.285Z,985.45
2019-05-07T03:02:33.017Z,985.45
2019-05-07T03:03:33.202Z,985.43
2019-05-07T03:04:33.115Z,985.40
2019-05-07T03:05:30.241Z,985.41
2019-05-07T03:06:33.568Z,985.45
2019-05-07T03:07:33.188Z,985.43
2019-05-07T03:08:32.845Z,985.43
2019-05-07T03:09:32.670Z,985.43
2019-05-07T03:10:30.038Z,985.43
2019-05-07T03:11:29.991Z,985.40
2019-05-07T03:12:33.260Z,985.42
2019-05-07T03:13:29.915Z,985.43
2019-05-07T03:14:32.278Z,985.45
2019-05-07T03:15:32.859Z,985.41
2019-05-07T03:16:39.959Z,985.42
2019-05-07T03:17:29.771Z,985.38
2019-05-07T03:18:33.139Z,985.39
2019-05-07T03:19:29.658Z,985.40
2019-05-07T03:20:29.633Z,985.41
2019-05-07T03:21:29.600Z,985.41
2019-05-07T03:22:29.562Z,985.40
2019-05-07T03:23:29.546Z,985.40
2019-05-07T03:24:29.497Z,985.40
2019-05-07T03:25:29.434Z,985.37
2019-05-07T03:26:29.390Z,985.37
2019-05-07T03:27:29.360Z,985.39
2019-05-07T03:28:29.360Z,985.38
2019-05-07T03:29:29.271Z,985.41
2019-05-07T03:30:29.259Z,985.41
2019-05-07T03:31:29.205Z,985.44
2019-05-07T03:32:29.170Z,985.41
2019-05-07T03:33:29.159Z,985.43
2019-05-07T03:34:29.063Z,985.43
2019-05-07T03:35:29.037Z,985.41
2019-05-07T03:36:28.999Z,985.43
2019-05-07T03:37:33.123Z,985.42
2019-05-07T03:38:28.912Z,985.41
2019-05-07T03:39:28.851Z,985.39
2019-05-07T03:40:28.822Z,985.42
2019-05-07T03:41:28.841Z,985.42
2019-05-07T03:42:28.738Z,985.42
2019-05-07T03:43:28.732Z,985.44
2019-05-07T03:44:28.662Z,985.41
2019-05-07T03:45:28.611Z,985.45
2019-05-07T03:46:28.582Z,985.46
2019-05-07T03:47:28.550Z,985.46
2019-05-07T03:48:28.503Z,985.48
2019-05-07T03:49:28.480Z,985.48
2019-05-07T03:50:28.470Z,985.44
2019-05-07T03:51:28.405Z,985.45
2019-05-07T03:52:28.432Z,985.47
2019-05-07T03:53:28.303Z,985.50
2019-05-07T03:54:28.280Z,985.47
2019-05-07T03:55:28.203Z,985.47
2019-05-07T03:56:28.174Z,985.47
2019-05-07T03:57:28.138Z,985.47
2019-05-07T03:58:28.086Z,985.47
2019-05-07T03:59:28.076Z,985.45
2019-05-07T04:00:28.000Z,985.48
2019-05-07T04:01:27.996Z,985.48
2019-05-07T04:02:27.947Z,985.50
2019-05-07T04:03:27.898Z,985.51
2019-05-07T04:04:27.875Z,985.51
2019-05-07T04:05:27.800Z,985.49
2019-05-07T04:06:27.780Z,985.52
2019-05-07T04:07:27.740Z,985.48
2019-05-07T04:08:27.686Z,985.48
2019-05-07T04:09:27.679Z,985.48
2019-05-07T04:10:27.613Z,985.52
2019-05-07T04:11:27.580Z,985.46
2019-05-07T04:12:27.543Z,985.52
2019-05-07T04:13:27.486Z,985.51
2019-05-07T04:14:27.453Z,985.54
2019-05-07T04:15:27.447Z,985.55
2019-05-07T04:16:27.381Z,985.52
2019-05-07T04:17:27.438Z,985.56
2019-05-07T04:18:27.292Z,985.57
2019-05-07T04:19:27.254Z,985.59
2019-05-07T04:20:27.200Z,985.57
2019-05-07T04:21:27.170Z,985.58
2019-05-07T04:22:29.069Z,985.59
2019-05-07T04:23:27.073Z,985.58
2019-05-07T04:24:27.039Z,985.61
2019-05-07T04:25:26.993Z,985.54
2019-05-07T04:26:26.964Z,985.58
2019-05-07T04:27:26.913Z,985.58
2019-05-07T04:28:26.914Z,985.57
2019-05-07T04:29:26.863Z,985.57
2019-05-07T04:30:26.826Z,985.57
2019-05-07T04:31:26.802Z,985.58
2019-05-07T04:32:26.704Z,985.60
2019-05-07T04:33:26.673Z,985.60
2019-05-07T04:34:26.653Z,985.59
2019-05-07T04:35:26.604Z,985.59
2019-05-07T04:36:26.556Z,985.60
2019-05-07T04:37:26.563Z,985.62
2019-05-07T04:38:26.507Z,985.60
2019-05-07T04:39:26.448Z,985.60
2019-05-07T04:40:26.393Z,985.62
2019-05-07T04:41:26.367Z,985.62
2019-05-07T04:42:26.355Z,985.60
2019-05-07T04:43:26.297Z,985.62
2019-05-07T04:44:26.213Z,985.60
2019-05-07T04:45:26.185Z,985.64
2019-05-07T04:46:26.149Z,985.64
2019-05-07T04:47:38.534Z,985.67
2019-05-07T04:48:26.064Z,985.68
2019-05-07T04:49:26.034Z,985.66
2019-05-07T04:50:39.550Z,985.67
2019-05-07T04:51:25.951Z,985.66
2019-05-07T04:52:25.902Z,985.66
2019-05-07T04:53:25.932Z,985.66
2019-05-07T04:54:25.843Z,985.70
2019-05-07T04:55:25.791Z,985.70
2019-05-07T04:56:25.747Z,985.70
2019-05-07T04:57:25.818Z,985.71
2019-05-07T04:58:26.696Z,985.74
2019-05-07T04:59:26.501Z,985.74
2019-05-07T05:00:25.598Z,985.76
2019-05-07T05:01:25.555Z,985.78
2019-05-07T05:02:25.513Z,985.76
2019-05-07T05:03:25.485Z,985.72
2019-05-07T05:04:30.654Z,985.76
2019-05-07T05:05:25.995Z,985.75
2019-05-07T05:06:25.357Z,985.72
2019-05-07T05:07:25.300Z,985.74
2019-05-07T05:08:25.261Z,985.72
2019-05-07T05:09:25.278Z,985.69
2019-05-07T05:10:25.229Z,985.69
2019-05-07T05:11:25.152Z,985.71
2019-05-07T05:12:25.141Z,985.69
2019-05-07T05:13:25.082Z,985.72
2019-05-07T05:14:25.031Z,985.75
2019-05-07T05:15:25.011Z,985.76
2019-05-07T05:16:24.958Z,985.80
2019-05-07T05:17:24.896Z,985.77
2019-05-07T05:18:24.894Z,985.76
2019-05-07T05:19:24.842Z,985.79
2019-05-07T05:20:24.807Z,985.80
2019-05-07T05:21:24.762Z,985.77
2019-05-07T05:22:24.730Z,985.77
2019-05-07T05:23:24.681Z,985.80
2019-05-07T05:24:24.635Z,985.85
2019-05-07T05:25:24.600Z,985.85
2019-05-07T05:26:24.546Z,985.85
2019-05-07T05:27:24.529Z,985.87
2019-05-07T05:28:24.501Z,985.91
2019-05-07T05:29:25.000Z,985.91
2019-05-07T05:30:24.415Z,985.93
2019-05-07T05:31:24.359Z,985.96
2019-05-07T05:32:24.352Z,985.99
2019-05-07T05:33:24.278Z,985.98
2019-05-07T05:34:24.244Z,985.97
2019-05-07T05:35:24.212Z,986.00
2019-05-07T05:36:24.162Z,985.98
2019-05-07T05:37:24.135Z,986.05
2019-05-07T05:38:24.082Z,985.99
2019-05-07T05:39:24.065Z,986.01
2019-05-07T05:40:24.021Z,986.04
2019-05-07T05:41:24.000Z,986.01
2019-05-07T05:42:23.973Z,986.02
2019-05-07T05:43:23.911Z,986.02
2019-05-07T05:44:23.868Z,986.01
2019-05-07T05:45:23.893Z,986.06
2019-05-07T05:46:23.799Z,986.05
2019-05-07T05:47:23.738Z,986.03
2019-05-07T05:48:23.727Z,986.04
2019-05-07T05:49:23.691Z,986.05
2019-05-07T05:50:23.645Z,986.05
2019-05-07T05:51:23.594Z,986.06
2019-05-07T05:52:23.587Z,986.06
2019-05-07T05:53:23.532Z,986.03
2019-05-07T05:54:23.494Z,986.02
2019-05-07T05:55:23.465Z,986.05
2019-05-07T05:56:23.408Z,986.06
2019-05-07T05:57:23.374Z,986.06
2019-05-07T05:58:24.141Z,986.02
2019-05-07T05:59:27.658Z,986.01
2019-05-07T06:00:23.269Z,986.08
2019-05-07T06:01:23.208Z,986.07
2019-05-07T06:02:23.191Z,986.07
2019-05-07T06:03:23.170Z,986.11
2019-05-07T06:04:23.121Z,986.02
2019-05-07T06:05:23.076Z,986.05
2019-05-07T06:06:23.043Z,986.08
2019-05-07T06:07:23.002Z,986.07
2019-05-07T06:08:24.007Z,986.05
2019-05-07T06:09:22.945Z,986.03
2019-05-07T06:10:22.924Z,986.07
2019-05-07T06:11:22.880Z,986.06
2019-05-07T06:12:22.825Z,986.10
2019-05-07T06:13:23.178Z,986.11
2019-05-07T06:14:22.730Z,986.11
2019-05-07T06:15:22.716Z,986.15
2019-05-07T06:16:22.693Z,986.13
2019-05-07T06:17:22.640Z,986.15
2019-05-07T06:18:23.921Z,986.13
2019-05-07T06:19:22.662Z,986.14
2019-05-07T06:20:22.732Z,986.14
2019-05-07T06:21:24.154Z,986.10
2019-05-07T06:22:22.459Z,986.20
2019-05-07T06:23:22.667Z,986.18
2019-05-07T06:24:22.692Z,986.14
2019-05-07T06:25:24.886Z,986.14
2019-05-07T06:26:22.750Z,986.14
2019-05-07T06:27:22.958Z,986.12
2019-05-07T06:28:22.521Z,986.12
2019-05-07T06:29:23.150Z,986.11
2019-05-07T06:30:22.818Z,986.13
2019-05-07T06:31:22.280Z,986.12
2019-05-07T06:32:22.883Z,986.13
2019-05-07T06:33:23.016Z,986.12
2019-05-07T06:34:22.076Z,986.18
2019-05-07T06:35:22.966Z,986.14
2019-05-07T06:36:22.120Z,986.13
2019-05-07T06:37:22.809Z,986.13
2019-05-07T06:38:22.135Z,986.14
2019-05-07T06:39:22.208Z,986.15
2019-05-07T06:40:26.706Z,986.14
2019-05-07T06:41:22.659Z,986.18
2019-05-07T06:42:22.222Z,986.18
2019-05-07T06:43:21.973Z,986.19
2019-05-07T06:44:22.381Z,986.22
2019-05-07T06:45:22.732Z,986.18
2019-05-07T06:46:23.164Z,986.22
2019-05-07T06:47:22.179Z,986.20
2019-05-07T06:48:37.196Z,986.21
2019-05-07T06:49:22.373Z,986.23
2019-05-07T06:50:22.101Z,986.22
2019-05-07T06:51:22.023Z,986.20
2019-05-07T06:52:22.454Z,986.21
2019-05-07T06:53:22.229Z,986.20
2019-05-07T06:54:22.575Z,986.22
2019-05-07T06:55:22.834Z,986.25
2019-05-07T06:56:23.037Z,986.28
2019-05-07T06:57:22.223Z,986.25
2019-05-07T06:58:21.921Z,986.28
2019-05-07T06:59:22.510Z,986.25
2019-05-07T07:00:22.561Z,986.25
2019-05-07T07:01:22.785Z,986.29
2019-05-07T07:02:22.525Z,986.26
2019-05-07T07:03:22.274Z,986.26
2019-05-07T07:04:22.507Z,986.28
2019-05-07T07:05:25.672Z,986.27
2019-05-07T07:06:22.852Z,986.27
2019-05-07T07:07:27.386Z,986.29
2019-05-07T07:08:22.922Z,986.28
2019-05-07T07:09:22.258Z,986.25
2019-05-07T07:10:22.581Z,986.29
2019-05-07T07:11:22.407Z,986.31
2019-05-07T07:12:24.026Z,986.32
2019-05-07T07:13:22.197Z,986.28
2019-05-07T07:14:22.582Z,986.33
2019-05-07T07:15:23.050Z,986.28
2019-05-07T07:16:22.466Z,986.32
2019-05-07T07:17:22.329Z,986.29
2019-05-07T07:18:22.891Z,986.31
2019-05-07T07:19:20.400Z,986.32
2019-05-07T07:20:21.845Z,986.33
2019-05-07T07:21:22.000Z,986.30
2019-05-07T07:22:22.151Z,986.31
2019-05-07T07:23:22.463Z,986.37
2019-05-07T07:24:22.195Z,986.31
2019-05-07T07:25:20.191Z,986.33
2019-05-07T07:26:22.138Z,986.38
2019-05-07T07:27:22.552Z,986.39
2019-05-07T07:28:21.949Z,986.32
2019-05-07T07:29:21.508Z,986.36
2019-05-07T07:30:21.849Z,986.37
2019-05-07T07:31:22.241Z,986.36
2019-05-07T07:32:22.029Z,986.35
2019-05-07T07:33:19.906Z,986.32
2019-05-07T07:34:22.543Z,986.33
2019-05-07T07:35:19.845Z,986.36
2019-05-07T07:36:19.755Z,986.34
2019-05-07T07:37:19.726Z,986.37
2019-05-07T07:38:19.699Z,986.35
2019-05-07T07:39:21.943Z,986.31
2019-05-07T07:40:19.633Z,986.37
2019-05-07T07:41:19.583Z,986.35
2019-05-07T07:42:19.547Z,986.39
2019-05-07T07:43:21.708Z,986.37
2019-05-07T07:44:22.226Z,986.38
2019-05-07T07:45:19.437Z,986.39
2019-05-07T07:46:21.903Z,986.41
2019-05-07T07:47:19.374Z,986.43
2019-05-07T07:48:19.318Z,986.39
2019-05-07T07:49:19.280Z,986.40
2019-05-07T07:50:19.239Z,986.38
2019-05-07T07:51:34.256Z,986.40
2019-05-07T07:52:19.185Z,986.37
2019-05-07T07:53:19.188Z,986.41
2019-05-07T07:54:19.121Z,986.42
2019-05-07T07:55:19.068Z,986.45
2019-05-07T07:56:19.060Z,986.42
2019-05-07T07:57:18.982Z,986.40
2019-05-07T07:58:18.977Z,986.41
2019-05-07T07:59:18.944Z,986.39
2019-05-07T08:00:18.950Z,986.42
2019-05-07T08:01:18.862Z,986.45
2019-05-07T08:02:18.809Z,986.45
2019-05-07T08:03:18.785Z,986.44
2019-05-07T08:04:18.757Z,986.41
2019-05-07T08:05:18.707Z,986.41
2019-05-07T08:06:18.667Z,986.43
2019-05-07T08:07:18.633Z,986.42
2019-05-07T08:08:18.587Z,986.40
2019-05-07T08:09:18.539Z,986.43
2019-05-07T08:10:18.497Z,986.43
2019-05-07T08:11:18.466Z,986.45
2019-05-07T08:12:18.433Z,986.47
2019-05-07T08:13:18.415Z,986.43
2019-05-07T08:14:18.365Z,986.42
2019-05-07T08:15:21.817Z,986.45
2019-05-07T08:16:18.283Z,986.50
2019-05-07T08:17:18.295Z,986.45
2019-05-07T08:18:18.255Z,986.42
2019-05-07T08:19:21.930Z,986.46
2019-05-07T08:20:18.181Z,986.46
2019-05-07T08:21:18.105Z,986.46
2019-05-07T08:22:18.071Z,986.38
2019-05-07T08:23:18.041Z,986.40
2019-05-07T08:24:17.999Z,986.39
2019-05-07T08:25:17.966Z,986.35
2019-05-07T08:26:17.963Z,986.37
2019-05-07T08:27:17.892Z,986.39
2019-05-07T08:28:17.852Z,986.42
2019-05-07T08:29:17.825Z,986.38
2019-05-07T08:30:17.763Z,986.39
2019-05-07T08:31:17.741Z,986.40
2019-05-07T08:32:17.695Z,986.43
2019-05-07T08:33:17.680Z,986.37
2019-05-07T08:34:17.674Z,986.38
2019-05-07T08:35:17.608Z,986.36
2019-05-07T08:36:17.614Z,986.39
2019-05-07T08:37:17.603Z,986.34
2019-05-07T08:38:17.501Z,986.34
2019-05-07T08:39:17.462Z,986.36
2019-05-07T08:40:17.420Z,986.32
2019-05-07T08:41:17.403Z,986.35
2019-05-07T08:42:17.353Z,986.33
2019-05-07T08:43:17.373Z,986.33
2019-05-07T08:44:17.270Z,986.30
2019-05-07T08:45:17.364Z,986.30
2019-05-07T08:46:17.241Z,986.27
2019-05-07T08:47:17.231Z,986.24
2019-05-07T08:48:17.175Z,986.23
2019-05-07T08:49:17.128Z,986.17
2019-05-07T08:50:17.070Z,986.17
2019-05-07T08:51:17.045Z,986.14
2019-05-07T08:52:17.012Z,986.17
2019-05-07T08:53:16.976Z,986.15
2019-05-07T08:54:16.922Z,986.18
2019-05-07T08:55:16.909Z,986.20
2019-05-07T08:56:16.869Z,986.23
2019-05-07T08:57:16.850Z,986.18
2019-05-07T08:58:16.808Z,986.15
2019-05-07T08:59:16.796Z,986.19
2019-05-07T09:00:16.734Z,986.19
2019-05-07T09:01:16.736Z,986.17
2019-05-07T09:02:16.669Z,986.16
2019-05-07T09:03:22.255Z,986.11
2019-05-07T09:04:16.668Z,986.06
2019-05-07T09:05:16.599Z,986.07
2019-05-07T09:06:16.564Z,986.07
2019-05-07T09:07:16.500Z,986.05
2019-05-07T09:08:16.533Z,985.99
2019-05-07T09:09:16.439Z,986.07
2019-05-07T09:10:16.407Z,986.08
2019-05-07T09:11:16.400Z,986.10
2019-05-07T09:12:16.357Z,986.10
2019-05-07T09:13:16.308Z,986.10
2019-05-07T09:14:16.290Z,986.13
2019-05-07T09:15:16.251Z,986.13
2019-05-07T09:16:16.226Z,986.10
2019-05-07T09:17:16.182Z,986.13
2019-05-07T09:18:16.183Z,986.06
2019-05-07T09:19:16.137Z,986.05
2019-05-07T09:20:16.131Z,986.02
2019-05-07T09:21:16.117Z,986.08
2019-05-07T09:22:16.065Z,986.08
2019-05-07T09:23:16.005Z,986.09
2019-05-07T09:24:15.996Z,986.10
2019-05-07T09:25:16.112Z,986.09
2019-05-07T09:26:15.910Z,986.09
2019-05-07T09:27:15.896Z,986.15
2019-05-07T09:28:15.887Z,986.20
2019-05-07T09:29:15.849Z,986.17
2019-05-07T09:30:15.922Z,986.19
2019-05-07T09:31:15.770Z,986.15
2019-05-07T09:32:15.745Z,986.13
2019-05-07T09:33:15.725Z,986.14
2019-05-07T09:34:15.683Z,986.13
2019-05-07T09:35:16.599Z,986.11
2019-05-07T09:36:15.653Z,986.16
2019-05-07T09:37:15.641Z,986.12
2019-05-07T09:38:15.600Z,986.11
2019-05-07T09:39:15.562Z,986.10
2019-05-07T09:40:15.544Z,986.10
2019-05-07T09:41:15.541Z,986.12
2019-05-07T09:42:15.509Z,986.09
2019-05-07T09:43:15.480Z,986.06
2019-05-07T09:44:15.429Z,986.09
2019-05-07T09:45:15.386Z,986.10
2019-05-07T09:46:15.386Z,986.10
2019-05-07T09:47:15.357Z,986.07
2019-05-07T09:48:15.384Z,985.99
2019-05-07T09:49:15.291Z,986.01
2019-05-07T09:50:15.304Z,985.97
2019-05-07T09:51:15.242Z,986.02
2019-05-07T09:52:15.223Z,986.01
2019-05-07T09:53:15.170Z,985.97
2019-05-07T09:54:15.149Z,985.92
2019-05-07T09:55:17.540Z,985.98
2019-05-07T09:56:15.093Z,986.00
2019-05-07T09:57:27.427Z,985.99
2019-05-07T09:58:15.045Z,985.97
2019-05-07T09:59:14.985Z,985.96
2019-05-07T10:00:14.975Z,985.97
2019-05-07T10:01:14.940Z,985.94
2019-05-07T10:02:14.897Z,985.91
2019-05-07T10:03:14.868Z,985.93
2019-05-07T10:04:14.918Z,985.91
2019-05-07T10:05:14.804Z,985.87
2019-05-07T10:06:14.802Z,985.89
2019-05-07T10:07:14.738Z,985.87
2019-05-07T10:08:14.723Z,985.87
2019-05-07T10:09:14.708Z,985.89
2019-05-07T10:10:14.659Z,985.85
2019-05-07T10:11:14.631Z,985.83
2019-05-07T10:12:14.601Z,985.85
2019-05-07T10:13:14.881Z,985.84
2019-05-07T10:14:14.538Z,985.85
2019-05-07T10:15:14.500Z,985.76
2019-05-07T10:16:14.487Z,985.75
2019-05-07T10:17:14.483Z,985.71
2019-05-07T10:18:14.424Z,985.72
2019-05-07T10:19:14.381Z,985.73
2019-05-07T10:20:21.784Z,985.71
2019-05-07T10:21:14.360Z,985.67
2019-05-07T10:22:14.294Z,985.70
2019-05-07T10:23:14.253Z,985.67
2019-05-07T10:24:14.237Z,985.69
2019-05-07T10:25:14.201Z,985.69
2019-05-07T10:26:14.183Z,985.66
2019-05-07T10:27:14.158Z,985.69
2019-05-07T10:28:14.126Z,985.67
2019-05-07T10:29:14.080Z,985.68
2019-05-07T10:30:14.059Z,985.72
2019-05-07T10:31:14.025Z,985.69
2019-05-07T10:32:14.040Z,985.67
2019-05-07T10:33:13.985Z,985.73
2019-05-07T10:34:14.071Z,985.69
2019-05-07T10:35:13.904Z,985.66
2019-05-07T10:36:13.885Z,985.70
2019-05-07T10:37:13.849Z,985.72
2019-05-07T10:38:13.819Z,985.73
2019-05-07T10:39:13.779Z,985.74
2019-05-07T10:40:13.755Z,985.72
2019-05-07T10:41:13.725Z,985.71
2019-05-07T10:42:13.714Z,985.74
2019-05-07T10:43:13.644Z,985.72
2019-05-07T10:44:13.645Z,985.77
2019-05-07T10:45:13.694Z,985.75
2019-05-07T10:46:13.556Z,985.71
2019-05-07T10:47:13.563Z,985.75
2019-05-07T10:48:13.512Z,985.75
2019-05-07T10:49:13.462Z,985.71
2019-05-07T10:50:13.489Z,985.75
2019-05-07T10:51:13.402Z,985.77
2019-05-07T10:52:13.380Z,985.72
2019-05-07T10:53:13.328Z,985.68
2019-05-07T10:54:13.321Z,985.66
2019-05-07T10:55:13.292Z,985.64
2019-05-07T10:56:13.229Z,985.62
2019-05-07T10:57:13.209Z,985.62
2019-05-07T10:58:13.188Z,985.63
2019-05-07T10:59:13.137Z,985.60
2019-05-07T11:00:13.160Z,985.62
2019-05-07T11:01:13.104Z,985.62
2019-05-07T11:02:13.050Z,985.61
2019-05-07T11:03:13.030Z,985.59
2019-05-07T11:04:12.975Z,985.59
2019-05-07T11:05:13.101Z,985.62
2019-05-07T11:06:12.925Z,985.58
2019-05-07T11:07:12.891Z,985.61
2019-05-07T11:08:12.836Z,985.63
2019-05-07T11:09:12.840Z,985.56
2019-05-07T11:10:12.785Z,985.59
2019-05-07T11:11:12.752Z,985.57
2019-05-07T11:12:12.843Z,985.57
2019-05-07T11:13:12.960Z,985.62
2019-05-07T11:14:12.657Z,985.61
2019-05-07T11:15:12.817Z,985.61
2019-05-07T11:16:12.588Z,985.59
2019-05-07T11:17:12.543Z,985.58
2019-05-07T11:18:12.760Z,985.57
2019-05-07T11:19:12.796Z,985.53
2019-05-07T11:20:12.495Z,985.55
2019-05-07T11:21:12.473Z,985.54
2019-05-07T11:22:12.444Z,985.51
2019-05-07T11:23:12.387Z,985.51
2019-05-07T11:24:12.369Z,985.48
2019-05-07T11:25:12.302Z,985.45
2019-05-07T11:26:12.268Z,985.44
2019-05-07T11:27:12.254Z,985.45
2019-05-07T11:28:12.551Z,985.43
2019-05-07T11:29:13.040Z,985.41
2019-05-07T11:30:12.161Z,985.45
2019-05-07T11:31:12.519Z,985.46
2019-05-07T11:32:12.374Z,985.46
2019-05-07T11:33:12.785Z,985.44
2019-05-07T11:34:13.932Z,985.46
2019-05-07T11:35:14.643Z,985.45
2019-05-07T11:36:12.015Z,985.43
2019-05-07T11:37:12.068Z,985.44
2019-05-07T11:38:20.500Z,985.45
2019-05-07T11:39:12.291Z,985.41
2019-05-07T11:40:13.120Z,985.39
2019-05-07T11:41:12.755Z,985.38
2019-05-07T11:42:12.690Z,985.39
2019-05-07T11:43:13.057Z,985.37
2019-05-07T11:44:12.386Z,985.37
2019-05-07T11:45:12.258Z,985.37
2019-05-07T11:46:13.046Z,985.34
2019-05-07T11:47:12.323Z,985.37
2019-05-07T11:48:13.273Z,985.35
2019-05-07T11:49:13.747Z,985.33
2019-05-07T11:50:14.500Z,985.28
2019-05-07T11:51:12.264Z,985.32
2019-05-07T11:52:12.303Z,985.31
2019-05-07T11:53:11.428Z,985.30
2019-05-07T11:54:12.704Z,985.32
2019-05-07T11:55:12.051Z,985.32
2019-05-07T11:56:11.752Z,985.30
2019-05-07T11:57:11.696Z,985.30
2019-05-07T11:58:12.828Z,985.30
2019-05-07T11:59:13.423Z,985.27
2019-05-07T12:00:12.888Z,985.26
2019-05-07T12:01:12.522Z,985.22
2019-05-07T12:02:12.100Z,985.25
2019-05-07T12:03:11.106Z,985.21
2019-05-07T12:04:12.546Z,985.21
2019-05-07T12:05:12.107Z,985.19
2019-05-07T12:06:12.488Z,985.20
2019-05-07T12:07:11.936Z,985.19
2019-05-07T12:08:13.054Z,985.19
2019-05-07T12:09:12.102Z,985.17
2019-05-07T12:10:12.178Z,985.15
2019-05-07T12:11:11.911Z,985.18
2019-05-07T12:12:12.681Z,985.17
2019-05-07T12:13:12.269Z,985.16
2019-05-07T12:14:12.388Z,985.18
2019-05-07T12:15:12.482Z,985.16
2019-05-07T12:16:13.698Z,985.20
2019-05-07T12:17:11.951Z,985.14
2019-05-07T12:18:11.869Z,985.17
2019-05-07T12:19:13.049Z,985.16
2019-05-07T12:20:12.399Z,985.12
2019-05-07T12:21:20.039Z,985.15
2019-05-07T12:22:12.079Z,985.15
2019-05-07T12:23:12.157Z,985.10
2019-05-07T12:24:12.359Z,985.07
2019-05-07T12:25:12.144Z,985.11
2019-05-07T12:26:12.371Z,985.10
2019-05-07T12:27:11.930Z,985.09
2019-05-07T12:28:10.349Z,985.10